Terminal Aerodrome Forecast
Issued by NWS

Home | Current Version | Previous Version | Text Only | Print | Product List | Glossary On
Versions: 1 2 3 4 5 6 7 8 9 10 11 12 13 14 15 16 17 18 19 20
000
FTUS44 KBMX 180923 AAB
TAFEET
TAF AMD
KEET 180923Z 1809/1906 15005KT P6SM OVC025
     FM181100 16007KT P6SM OVC015
     FM181500 19012G22KT P6SM OVC015
     FM181900 21013G22KT P6SM SHRA OVC025
     FM190100 27016G26KT 4SM RA BR OVC025=

USA.gov is the U.S. government's official web portal to all federal, state and local government web resources and services.